sensor_id;sensor_type;location;lat;lon;timestamp;pressure;altitude;pressure_sealevel;temperature;humidity
54194;BME280;40102;50.906;6.972;2023-04-08T00:00:05;101500.41;;;9.84;81.16
54194;BME280;40102;50.906;6.972;2023-04-08T00:02:32;101496.94;;;9.82;81.13
54194;BME280;40102;50.906;6.972;2023-04-08T00:04:58;101508.44;;;9.84;81.13
54194;BME280;40102;50.906;6.972;2023-04-08T00:07:23;101498.63;;;9.85;81.08
54194;BME280;40102;50.906;6.972;2023-04-08T00:09:49;101506.63;;;9.85;81.08
54194;BME280;40102;50.906;6.972;2023-04-08T00:12:15;101505.88;;;9.81;81.29
54194;BME280;40102;50.906;6.972;2023-04-08T00:14:40;101500.53;;;9.81;81.34
54194;BME280;40102;50.906;6.972;2023-04-08T00:17:06;101505.09;;;9.79;81.52
54194;BME280;40102;50.906;6.972;2023-04-08T00:19:32;101512.16;;;9.80;81.54
54194;BME280;40102;50.906;6.972;2023-04-08T00:21:58;101498.00;;;9.78;81.48
54194;BME280;40102;50.906;6.972;2023-04-08T00:24:24;101506.88;;;9.79;81.76
54194;BME280;40102;50.906;6.972;2023-04-08T00:26:50;101506.00;;;9.78;81.83
54194;BME280;40102;50.906;6.972;2023-04-08T00:29:15;101507.81;;;9.78;81.54
54194;BME280;40102;50.906;6.972;2023-04-08T00:31:41;101515.84;;;9.78;81.49
54194;BME280;40102;50.906;6.972;2023-04-08T00:34:06;101510.44;;;9.79;81.65
54194;BME280;40102;50.906;6.972;2023-04-08T00:36:31;101519.38;;;9.78;81.56
54194;BME280;40102;50.906;6.972;2023-04-08T00:38:58;101512.16;;;9.80;81.42
54194;BME280;40102;50.906;6.972;2023-04-08T00:41:23;101511.28;;;9.80;81.48
54194;BME280;40102;50.906;6.972;2023-04-08T00:43:49;101512.09;;;9.82;81.11
54194;BME280;40102;50.906;6.972;2023-04-08T00:46:14;101514.78;;;9.82;81.39
54194;BME280;40102;50.906;6.972;2023-04-08T00:48:40;101515.53;;;9.85;81.12
54194;BME280;40102;50.906;6.972;2023-04-08T00:51:06;101512.91;;;9.84;81.09
54194;BME280;40102;50.906;6.972;2023-04-08T00:53:32;101514.72;;;9.83;81.07
54194;BME280;40102;50.906;6.972;2023-04-08T00:55:57;101521.06;;;9.81;81.28
54194;BME280;40102;50.906;6.972;2023-04-08T00:58:26;101515.84;;;9.78;81.34
54194;BME280;40102;50.906;6.972;2023-04-08T01:01:01;101519.31;;;9.80;81.56
54194;BME280;40102;50.906;6.972;2023-04-08T01:03:37;101526.53;;;9.78;81.23
54194;BME280;40102;50.906;6.972;2023-04-08T01:06:31;101527.44;;;9.77;81.67
54194;BME280;40102;50.906;6.972;2023-04-08T01:08:59;101523.03;;;9.76;81.68
54194;BME280;40102;50.906;6.972;2023-04-08T01:11:31;101520.41;;;9.74;81.78
54194;BME280;40102;50.906;6.972;2023-04-08T01:14:00;101523.91;;;9.76;81.76
54194;BME280;40102;50.906;6.972;2023-04-08T01:16:30;101516.00;;;9.73;81.71
54194;BME280;40102;50.906;6.972;2023-04-08T01:18:56;101518.50;;;9.78;82.07
54194;BME280;40102;50.906;6.972;2023-04-08T01:21:22;101526.47;;;9.79;81.60
54194;BME280;40102;50.906;6.972;2023-04-08T01:24:05;101531.00;;;9.77;81.59
54194;BME280;40102;50.906;6.972;2023-04-08T01:26:34;101513.28;;;9.74;81.49
54194;BME280;40102;50.906;6.972;2023-04-08T01:29:03;101521.34;;;9.73;81.90
54194;BME280;40102;50.906;6.972;2023-04-08T01:31:30;101532.91;;;9.73;81.89
54194;BME280;40102;50.906;6.972;2023-04-08T01:33:56;101528.56;;;9.71;82.18
54194;BME280;40102;50.906;6.972;2023-04-08T01:36:24;101524.16;;;9.70;82.25
54194;BME280;40102;50.906;6.972;2023-04-08T01:38:50;101529.44;;;9.71;82.21
54194;BME280;40102;50.906;6.972;2023-04-08T01:41:17;101531.22;;;9.71;82.20
54194;BME280;40102;50.906;6.972;2023-04-08T01:43:43;101525.78;;;9.74;82.01
54194;BME280;40102;50.906;6.972;2023-04-08T01:46:10;101528.56;;;9.71;82.04
54194;BME280;40102;50.906;6.972;2023-04-08T01:48:37;101521.59;;;9.67;82.01
54194;BME280;40102;50.906;6.972;2023-04-08T01:51:04;101535.75;;;9.69;82.12
54194;BME280;40102;50.906;6.972;2023-04-08T01:53:33;101531.34;;;9.68;82.07
54194;BME280;40102;50.906;6.972;2023-04-08T01:56:08;101525.06;;;9.69;82.26
54194;BME280;40102;50.906;6.972;2023-04-08T01:58:41;101526.88;;;9.68;82.44
54194;BME280;40102;50.906;6.972;2023-04-08T02:01:10;101528.69;;;9.68;82.46
54194;BME280;40102;50.906;6.972;2023-04-08T02:03:37;101529.66;;;9.65;82.45
54194;BME280;40102;50.906;6.972;2023-04-08T02:06:05;101535.88;;;9.66;82.51
54194;BME280;40102;50.906;6.972;2023-04-08T02:08:33;101531.41;;;9.66;82.39
54194;BME280;40102;50.906;6.972;2023-04-08T02:11:00;101533.22;;;9.66;82.41
54194;BME280;40102;50.906;6.972;2023-04-08T02:13:26;101531.47;;;9.65;82.29
54194;BME280;40102;50.906;6.972;2023-04-08T02:15:57;101525.25;;;9.64;82.33
54194;BME280;40102;50.906;6.972;2023-04-08T02:18:25;101529.72;;;9.64;82.12
54194;BME280;40102;50.906;6.972;2023-04-08T02:21:03;101526.19;;;9.63;81.81
54194;BME280;40102;50.906;6.972;2023-04-08T02:23:32;101532.41;;;9.64;82.58
54194;BME280;40102;50.906;6.972;2023-04-08T02:26:00;101535.88;;;9.66;82.58
54194;BME280;40102;50.906;6.972;2023-04-08T02:28:27;101533.22;;;9.66;82.52
54194;BME280;40102;50.906;6.972;2023-04-08T02:30:56;101535.88;;;9.66;82.63
54194;BME280;40102;50.906;6.972;2023-04-08T02:33:22;101540.34;;;9.65;82.85
54194;BME280;40102;50.906;6.972;2023-04-08T02:35:51;101532.22;;;9.68;82.66
54194;BME280;40102;50.906;6.972;2023-04-08T02:38:19;101534.03;;;9.68;82.72
54194;BME280;40102;50.906;6.972;2023-04-08T02:40:44;101537.63;;;9.67;82.47
54194;BME280;40102;50.906;6.972;2023-04-08T02:43:10;101545.63;;;9.67;82.58
54194;BME280;40102;50.906;6.972;2023-04-08T02:45:40;101548.38;;;9.65;82.71
54194;BME280;40102;50.906;6.972;2023-04-08T02:48:06;101540.41;;;9.64;83.05
54194;BME280;40102;50.906;6.972;2023-04-08T02:50:33;101541.34;;;9.63;82.90
54194;BME280;40102;50.906;6.972;2023-04-08T02:52:59;101540.41;;;9.64;82.87
54194;BME280;40102;50.906;6.972;2023-04-08T02:55:24;101543.03;;;9.65;82.69
54194;BME280;40102;50.906;6.972;2023-04-08T02:57:50;101551.09;;;9.64;82.85
54194;BME280;40102;50.906;6.972;2023-04-08T03:00:15;101543.16;;;9.62;82.73
54194;BME280;40102;50.906;6.972;2023-04-08T03:02:41;101545.75;;;9.64;83.03
54194;BME280;40102;50.906;6.972;2023-04-08T03:05:07;101539.59;;;9.62;83.21
54194;BME280;40102;50.906;6.972;2023-04-08T03:07:34;101542.16;;;9.65;83.10
54194;BME280;40102;50.906;6.972;2023-04-08T03:09:59;101543.03;;;9.65;83.25
54194;BME280;40102;50.906;6.972;2023-04-08T03:12:25;101537.81;;;9.62;83.14
54194;BME280;40102;50.906;6.972;2023-04-08T03:14:53;101541.34;;;9.63;83.37
54194;BME280;40102;50.906;6.972;2023-04-08T03:17:19;101548.38;;;9.65;83.32
54194;BME280;40102;50.906;6.972;2023-04-08T03:19:44;101544.75;;;9.66;83.72
54194;BME280;40102;50.906;6.972;2023-04-08T03:22:09;101548.38;;;9.65;83.92
54194;BME280;40102;50.906;6.972;2023-04-08T03:24:35;101542.28;;;9.62;84.08
54194;BME280;40102;50.906;6.972;2023-04-08T03:27:04;101550.22;;;9.63;83.60
54194;BME280;40102;50.906;6.972;2023-04-08T03:29:30;101543.09;;;9.64;83.84
54194;BME280;40102;50.906;6.972;2023-04-08T03:31:55;101551.97;;;9.64;83.97
54194;BME280;40102;50.906;6.972;2023-04-08T03:34:21;101547.50;;;9.65;84.09
54194;BME280;40102;50.906;6.972;2023-04-08T03:36:46;101540.59;;;9.59;83.79
54194;BME280;40102;50.906;6.972;2023-04-08T03:39:12;101556.38;;;9.65;83.55
54194;BME280;40102;50.906;6.972;2023-04-08T03:41:38;101560.78;;;9.66;83.64
54194;BME280;40102;50.906;6.972;2023-04-08T03:44:03;101557.31;;;9.64;83.66
54194;BME280;40102;50.906;6.972;2023-04-08T03:46:28;101558.25;;;9.63;83.80
54194;BME280;40102;50.906;6.972;2023-04-08T03:48:54;101554.75;;;9.61;83.75
54194;BME280;40102;50.906;6.972;2023-04-08T03:51:19;101553.94;;;9.59;83.90
54194;BME280;40102;50.906;6.972;2023-04-08T03:53:45;101558.41;;;9.59;83.80
54194;BME280;40102;50.906;6.972;2023-04-08T03:56:11;101554.94;;;9.57;84.10
54194;BME280;40102;50.906;6.972;2023-04-08T03:58:36;101562.13;;;9.55;84.52
54194;BME280;40102;50.906;6.972;2023-04-08T04:01:02;101556.09;;;9.50;84.94
54194;BME280;40102;50.906;6.972;2023-04-08T04:03:27;101550.88;;;9.47;85.50
54194;BME280;40102;50.906;6.972;2023-04-08T04:05:52;101558.72;;;9.51;85.76
54194;BME280;40102;50.906;6.972;2023-04-08T04:08:18;101555.22;;;9.49;85.60
54194;BME280;40102;50.906;6.972;2023-04-08T04:10:43;101553.44;;;9.50;85.83
54194;BME280;40102;50.906;6.972;2023-04-08T04:13:09;101562.38;;;9.49;86.03
54194;BME280;40102;50.906;6.972;2023-04-08T04:15:38;101554.34;;;9.49;85.97
54194;BME280;40102;50.906;6.972;2023-04-08T04:18:04;101550.75;;;9.50;86.08
54194;BME280;40102;50.906;6.972;2023-04-08T04:20:30;101550.75;;;9.50;86.04
54194;BME280;40102;50.906;6.972;2023-04-08T04:22:55;101559.63;;;9.50;85.98
54194;BME280;40102;50.906;6.972;2023-04-08T04:25:21;101564.88;;;9.53;85.77
54194;BME280;40102;50.906;6.972;2023-04-08T04:27:46;101577.22;;;9.56;85.60
54194;BME280;40102;50.906;6.972;2023-04-08T04:30:11;101564.81;;;9.55;85.80
54194;BME280;40102;50.906;6.972;2023-04-08T04:32:40;101564.69;;;9.58;85.66
54194;BME280;40102;50.906;6.972;2023-04-08T04:35:05;101571.78;;;9.59;85.73
54194;BME280;40102;50.906;6.972;2023-04-08T04:37:31;101572.69;;;9.58;85.66
54194;BME280;40102;50.906;6.972;2023-04-08T04:39:56;101572.59;;;9.61;85.43
54194;BME280;40102;50.906;6.972;2023-04-08T04:42:22;101575.31;;;9.59;85.52
54194;BME280;40102;50.906;6.972;2023-04-08T04:44:47;101579.72;;;9.60;85.07
54194;BME280;40102;50.906;6.972;2023-04-08T04:47:13;101590.47;;;9.59;85.22
54194;BME280;40102;50.906;6.972;2023-04-08T04:49:40;101574.44;;;9.59;85.26
54194;BME280;40102;50.906;6.972;2023-04-08T04:52:06;101573.50;;;9.60;85.32
54194;BME280;40102;50.906;6.972;2023-04-08T04:54:31;101588.59;;;9.61;85.41
54194;BME280;40102;50.906;6.972;2023-04-08T04:56:57;101586.88;;;9.60;85.24
54194;BME280;40102;50.906;6.972;2023-04-08T04:59:22;101576.25;;;9.58;85.27
54194;BME280;40102;50.906;6.972;2023-04-08T05:01:51;101580.78;;;9.56;85.29
54194;BME280;40102;50.906;6.972;2023-04-08T05:04:16;101585.25;;;9.56;85.47
54194;BME280;40102;50.906;6.972;2023-04-08T05:06:41;101586.94;;;9.58;85.58
54194;BME280;40102;50.906;6.972;2023-04-08T05:09:07;101596.75;;;9.58;85.41
54194;BME280;40102;50.906;6.972;2023-04-08T05:11:32;101592.31;;;9.57;85.42
54194;BME280;40102;50.906;6.972;2023-04-08T05:13:57;101592.31;;;9.57;85.39
54194;BME280;40102;50.906;6.972;2023-04-08T05:16:23;101591.47;;;9.56;85.59
54194;BME280;40102;50.906;6.972;2023-04-08T05:18:48;101591.47;;;9.56;85.31
54194;BME280;40102;50.906;6.972;2023-04-08T05:21:13;101582.81;;;9.50;85.65
54194;BME280;40102;50.906;6.972;2023-04-08T05:23:39;101596.31;;;9.45;85.59
54194;BME280;40102;50.906;6.972;2023-04-08T05:26:07;101588.53;;;9.39;86.23
54194;BME280;40102;50.906;6.972;2023-04-08T05:28:33;101593.81;;;9.40;86.24
54194;BME280;40102;50.906;6.972;2023-04-08T05:30:58;101599.97;;;9.43;86.61
54194;BME280;40102;50.906;6.972;2023-04-08T05:33:24;101600.75;;;9.46;86.38
54194;BME280;40102;50.906;6.972;2023-04-08T05:35:50;101597.19;;;9.46;86.17
54194;BME280;40102;50.906;6.972;2023-04-08T05:38:17;101612.06;;;9.53;86.12
54194;BME280;40102;50.906;6.972;2023-04-08T05:40:42;101604.00;;;9.54;85.60
54194;BME280;40102;50.906;6.972;2023-04-08T05:43:07;101610.22;;;9.55;85.76
54194;BME280;40102;50.906;6.972;2023-04-08T05:45:33;101607.47;;;9.56;85.25
54194;BME280;40102;50.906;6.972;2023-04-08T05:47:58;101617.22;;;9.57;85.33
54194;BME280;40102;50.906;6.972;2023-04-08T05:50:24;101625.19;;;9.59;85.19
54194;BME280;40102;50.906;6.972;2023-04-08T05:52:49;101620.84;;;9.56;85.12
54194;BME280;40102;50.906;6.972;2023-04-08T05:55:14;101627.00;;;9.58;84.90
54194;BME280;40102;50.906;6.972;2023-04-08T05:57:40;101636.69;;;9.61;84.86
54194;BME280;40102;50.906;6.972;2023-04-08T06:00:07;101640.22;;;9.61;84.59
54194;BME280;40102;50.906;6.972;2023-04-08T06:02:33;101639.34;;;9.61;84.10
54194;BME280;40102;50.906;6.972;2023-04-08T06:04:59;101641.22;;;9.59;84.05
54194;BME280;40102;50.906;6.972;2023-04-08T06:07:25;101638.66;;;9.56;84.02
54194;BME280;40102;50.906;6.972;2023-04-08T06:09:50;101647.53;;;9.56;83.80
54194;BME280;40102;50.906;6.972;2023-04-08T06:12:16;101633.44;;;9.53;83.51
54194;BME280;40102;50.906;6.972;2023-04-08T06:14:41;101643.28;;;9.51;83.53
54194;BME280;40102;50.906;6.972;2023-04-08T06:17:06;101650.31;;;9.53;83.80
54194;BME280;40102;50.906;6.972;2023-04-08T06:19:32;101651.19;;;9.54;83.92
54194;BME280;40102;50.906;6.972;2023-04-08T06:21:57;101653.81;;;9.55;84.08
54194;BME280;40102;50.906;6.972;2023-04-08T06:24:24;101652.88;;;9.56;84.00
54194;BME280;40102;50.906;6.972;2023-04-08T06:26:50;101660.78;;;9.59;83.88
54194;BME280;40102;50.906;6.972;2023-04-08T06:29:17;101662.53;;;9.60;83.96
54194;BME280;40102;50.906;6.972;2023-04-08T06:31:42;101667.88;;;9.60;83.85
54194;BME280;40102;50.906;6.972;2023-04-08T06:34:07;101665.31;;;9.57;83.62
54194;BME280;40102;50.906;6.972;2023-04-08T06:36:33;101672.41;;;9.58;83.80
54194;BME280;40102;50.906;6.972;2023-04-08T06:38:58;101670.59;;;9.59;83.77
54194;BME280;40102;50.906;6.972;2023-04-08T06:41:24;101685.69;;;9.60;83.58
54194;BME280;40102;50.906;6.972;2023-04-08T06:43:49;101672.28;;;9.61;83.50
54194;BME280;40102;50.906;6.972;2023-04-08T06:46:15;101670.53;;;9.60;83.16
54194;BME280;40102;50.906;6.972;2023-04-08T06:48:40;101672.44;;;9.57;83.21
54194;BME280;40102;50.906;6.972;2023-04-08T06:51:05;101668.97;;;9.55;83.32
54194;BME280;40102;50.906;6.972;2023-04-08T06:53:31;101673.44;;;9.54;83.32
54194;BME280;40102;50.906;6.972;2023-04-08T06:55:58;101675.19;;;9.55;83.46
54194;BME280;40102;50.906;6.972;2023-04-08T06:58:23;101682.31;;;9.55;83.57
54194;BME280;40102;50.906;6.972;2023-04-08T07:00:48;101677.84;;;9.55;83.38
54194;BME280;40102;50.906;6.972;2023-04-08T07:03:14;101684.19;;;9.53;83.42
54194;BME280;40102;50.906;6.972;2023-04-08T07:05:39;101684.22;;;9.51;83.36
54194;BME280;40102;50.906;6.972;2023-04-08T07:08:06;101688.53;;;9.55;83.51
54194;BME280;40102;50.906;6.972;2023-04-08T07:10:33;101688.59;;;9.54;83.63
54194;BME280;40102;50.906;6.972;2023-04-08T07:12:59;101690.34;;;9.55;83.81
54194;BME280;40102;50.906;6.972;2023-04-08T07:15:24;101691.25;;;9.54;83.42
54194;BME280;40102;50.906;6.972;2023-04-08T07:17:50;101691.25;;;9.54;83.23
54194;BME280;40102;50.906;6.972;2023-04-08T07:20:15;101698.41;;;9.53;82.90
54194;BME280;40102;50.906;6.972;2023-04-08T07:22:41;101695.63;;;9.56;82.91
54194;BME280;40102;50.906;6.972;2023-04-08T07:25:06;101705.38;;;9.57;82.72
54194;BME280;40102;50.906;6.972;2023-04-08T07:27:33;101702.72;;;9.57;82.55
54194;BME280;40102;50.906;6.972;2023-04-08T07:29:58;101704.56;;;9.55;82.49
54194;BME280;40102;50.906;6.972;2023-04-08T07:32:24;101708.09;;;9.56;82.46
54194;BME280;40102;50.906;6.972;2023-04-08T07:34:49;101703.63;;;9.56;82.23
54194;BME280;40102;50.906;6.972;2023-04-08T07:37:15;101708.91;;;9.58;82.26
54194;BME280;40102;50.906;6.972;2023-04-08T07:39:41;101708.91;;;9.58;82.17
54194;BME280;40102;50.906;6.972;2023-04-08T07:42:07;101707.34;;;9.52;82.75
54194;BME280;40102;50.906;6.972;2023-04-08T07:44:32;101710.13;;;9.49;83.21
54194;BME280;40102;50.906;6.972;2023-04-08T07:46:58;101718.28;;;9.45;83.39
54194;BME280;40102;50.906;6.972;2023-04-08T07:49:23;101719.22;;;9.44;83.43
54194;BME280;40102;50.906;6.972;2023-04-08T07:51:48;101724.44;;;9.47;83.55
54194;BME280;40102;50.906;6.972;2023-04-08T07:54:14;101717.31;;;9.47;83.08
54194;BME280;40102;50.906;6.972;2023-04-08T07:56:42;101719.81;;;9.52;82.84
54194;BME280;40102;50.906;6.972;2023-04-08T07:59:09;101731.31;;;9.54;82.98
54194;BME280;40102;50.906;6.972;2023-04-08T08:01:34;101712.75;;;9.51;82.88
54194;BME280;40102;50.906;6.972;2023-04-08T08:04:00;101724.13;;;9.56;82.79
54194;BME280;40102;50.906;6.972;2023-04-08T08:06:26;101717.03;;;9.55;82.62
54194;BME280;40102;50.906;6.972;2023-04-08T08:08:56;101724.94;;;9.58;82.37
54194;BME280;40102;50.906;6.972;2023-04-08T08:11:22;101738.31;;;9.58;82.18
54194;BME280;40102;50.906;6.972;2023-04-08T08:13:47;101731.91;;;9.62;81.98
54194;BME280;40102;50.906;6.972;2023-04-08T08:16:13;101740.81;;;9.62;81.85
54194;BME280;40102;50.906;6.972;2023-04-08T08:18:39;101742.44;;;9.66;81.35
54194;BME280;40102;50.906;6.972;2023-04-08T08:21:05;101732.75;;;9.64;81.61
54194;BME280;40102;50.906;6.972;2023-04-08T08:23:30;101743.31;;;9.67;81.35
54194;BME280;40102;50.906;6.972;2023-04-08T08:26:04;101744.13;;;9.69;81.60
54194;BME280;40102;50.906;6.972;2023-04-08T08:28:30;101743.16;;;9.71;81.51
54194;BME280;40102;50.906;6.972;2023-04-08T08:30:56;101748.44;;;9.73;81.25
54194;BME280;40102;50.906;6.972;2023-04-08T08:33:21;101746.59;;;9.75;81.37
54194;BME280;40102;50.906;6.972;2023-04-08T08:35:47;101751.00;;;9.76;81.50
54194;BME280;40102;50.906;6.972;2023-04-08T08:38:12;101750.94;;;9.78;80.91
54194;BME280;40102;50.906;6.972;2023-04-08T08:40:38;101744.78;;;9.76;81.04
54194;BME280;40102;50.906;6.972;2023-04-08T08:43:04;101750.84;;;9.81;80.85
54194;BME280;40102;50.906;6.972;2023-04-08T08:45:29;101757.06;;;9.81;80.90
54194;BME280;40102;50.906;6.972;2023-04-08T08:47:55;101756.06;;;9.84;80.97
54194;BME280;40102;50.906;6.972;2023-04-08T08:50:21;101756.88;;;9.86;80.89
54194;BME280;40102;50.906;6.972;2023-04-08T08:52:48;101759.56;;;9.86;81.25
54194;BME280;40102;50.906;6.972;2023-04-08T08:55:14;101763.06;;;9.88;81.27
54194;BME280;40102;50.906;6.972;2023-04-08T08:57:40;101755.91;;;9.88;81.03
54194;BME280;40102;50.906;6.972;2023-04-08T09:00:07;101759.44;;;9.89;80.94
54194;BME280;40102;50.906;6.972;2023-04-08T09:02:32;101760.22;;;9.92;81.45
54194;BME280;40102;50.906;6.972;2023-04-08T09:04:59;101756.50;;;9.96;81.23
54194;BME280;40102;50.906;6.972;2023-04-08T09:07:27;101768.13;;;9.95;81.49
54194;BME280;40102;50.906;6.972;2023-04-08T09:09:54;101767.06;;;9.99;81.50
54194;BME280;40102;50.906;6.972;2023-04-08T09:12:20;101762.53;;;10.01;81.36
54194;BME280;40102;50.906;6.972;2023-04-08T09:14:45;101758.94;;;10.02;81.53
54194;BME280;40102;50.906;6.972;2023-04-08T09:17:11;101771.38;;;10.03;81.54
54194;BME280;40102;50.906;6.972;2023-04-08T09:19:37;101766.91;;;10.04;81.51
54194;BME280;40102;50.906;6.972;2023-04-08T09:22:10;101771.25;;;10.06;81.48
54194;BME280;40102;50.906;6.972;2023-04-08T09:24:36;101773.94;;;10.06;81.34
54194;BME280;40102;50.906;6.972;2023-04-08T09:27:03;101771.25;;;10.06;81.30
54194;BME280;40102;50.906;6.972;2023-04-08T09:29:28;101776.56;;;10.08;80.94
54194;BME280;40102;50.906;6.972;2023-04-08T09:31:56;101777.38;;;10.10;80.99
54194;BME280;40102;50.906;6.972;2023-04-08T09:34:22;101771.97;;;10.12;80.77
54194;BME280;40102;50.906;6.972;2023-04-08T09:36:48;101769.19;;;10.15;80.65
54194;BME280;40102;50.906;6.972;2023-04-08T09:39:14;101777.19;;;10.15;80.65
54194;BME280;40102;50.906;6.972;2023-04-08T09:41:40;101783.41;;;10.15;80.51
54194;BME280;40102;50.906;6.972;2023-04-08T09:44:08;101784.19;;;10.19;80.37
54194;BME280;40102;50.906;6.972;2023-04-08T09:52:20;101791.31;;;10.20;79.47
54194;BME280;40102;50.906;6.972;2023-04-08T10:00:08;101786.91;;;10.17;78.21
54194;BME280;40102;50.906;6.972;2023-04-08T10:02:42;101786.84;;;10.19;78.48
54194;BME280;40102;50.906;6.972;2023-04-08T10:05:11;101785.03;;;10.21;78.64
54194;BME280;40102;50.906;6.972;2023-04-08T10:07:38;101789.44;;;10.22;78.59
54194;BME280;40102;50.906;6.972;2023-04-08T10:10:04;101782.28;;;10.22;77.95
54194;BME280;40102;50.906;6.972;2023-04-08T10:12:31;101790.25;;;10.24;77.33
54194;BME280;40102;50.906;6.972;2023-04-08T10:23:13;101783.97;;;10.25;76.81
54194;BME280;40102;50.906;6.972;2023-04-08T10:25:46;101783.09;;;10.24;76.34
54194;BME280;40102;50.906;6.972;2023-04-08T10:33:12;101781.94;;;10.31;75.99
54194;BME280;40102;50.906;6.972;2023-04-08T10:35:42;101782.75;;;10.33;75.67
54194;BME280;40102;50.906;6.972;2023-04-08T10:38:11;101796.06;;;10.35;75.82
54194;BME280;40102;50.906;6.972;2023-04-08T10:40:38;101783.53;;;10.37;75.78
54194;BME280;40102;50.906;6.972;2023-04-08T10:43:05;101790.63;;;10.38;75.43
54194;BME280;40102;50.906;6.972;2023-04-08T10:45:31;101788.75;;;10.40;75.01
54194;BME280;40102;50.906;6.972;2023-04-08T10:47:56;101776.22;;;10.41;74.96
54194;BME280;40102;50.906;6.972;2023-04-08T10:50:35;101790.22;;;10.47;75.36
54194;BME280;40102;50.906;6.972;2023-04-08T10:53:00;101778.59;;;10.48;75.39
54194;BME280;40102;50.906;6.972;2023-04-08T10:55:27;101773.13;;;10.51;75.19
54194;BME280;40102;50.906;6.972;2023-04-08T10:57:53;101782.78;;;10.55;75.31
54194;BME280;40102;50.906;6.972;2023-04-08T11:00:33;101777.50;;;10.54;75.00
54194;BME280;40102;50.906;6.972;2023-04-08T11:03:03;101788.06;;;10.57;74.41
54194;BME280;40102;50.906;6.972;2023-04-08T11:05:30;101781.72;;;10.59;73.62
54194;BME280;40102;50.906;6.972;2023-04-08T11:07:59;101782.59;;;10.60;73.09
54194;BME280;40102;50.906;6.972;2023-04-08T11:10:26;101773.66;;;10.61;73.02
54194;BME280;40102;50.906;6.972;2023-04-08T11:12:53;101769.97;;;10.63;73.19
54194;BME280;40102;50.906;6.972;2023-04-08T11:15:20;101779.63;;;10.67;73.33
54194;BME280;40102;50.906;6.972;2023-04-08T11:17:46;101770.72;;;10.67;72.99
54194;BME280;40102;50.906;6.972;2023-04-08T11:20:12;101760.03;;;10.67;72.50
54194;BME280;40102;50.906;6.972;2023-04-08T11:22:38;101767.88;;;10.71;72.38
54194;BME280;40102;50.906;6.972;2023-04-08T11:25:05;101773.03;;;10.76;72.35
54194;BME280;40102;50.906;6.972;2023-04-08T11:27:33;101774.78;;;10.77;72.05
54194;BME280;40102;50.906;6.972;2023-04-08T11:30:00;101758.78;;;10.76;71.51
54194;BME280;40102;50.906;6.972;2023-04-08T11:32:26;101752.38;;;10.80;71.43
54194;BME280;40102;50.906;6.972;2023-04-08T11:34:53;101763.84;;;10.83;71.60
54194;BME280;40102;50.906;6.972;2023-04-08T11:37:18;101762.84;;;10.86;71.23
54194;BME280;40102;50.906;6.972;2023-04-08T11:39:44;101761.03;;;10.86;70.91
54194;BME280;40102;50.906;6.972;2023-04-08T11:42:30;101760.22;;;10.84;70.65
54194;BME280;40102;50.906;6.972;2023-04-08T11:44:56;101762.91;;;10.84;70.54
54194;BME280;40102;50.906;6.972;2023-04-08T11:47:21;101749.59;;;10.83;70.23
54194;BME280;40102;50.906;6.972;2023-04-08T11:49:47;101749.59;;;10.83;70.27
54194;BME280;40102;50.906;6.972;2023-04-08T11:52:13;101755.75;;;10.85;70.21
54194;BME280;40102;50.906;6.972;2023-04-08T11:54:42;101752.13;;;10.86;70.06
54194;BME280;40102;50.906;6.972;2023-04-08T11:57:08;101756.69;;;10.84;69.97
54194;BME280;40102;50.906;6.972;2023-04-08T11:59:36;101758.34;;;10.86;69.84
54194;BME280;40102;50.906;6.972;2023-04-08T12:02:02;101761.78;;;10.90;70.15
54194;BME280;40102;50.906;6.972;2023-04-08T12:04:28;101763.53;;;10.91;69.98
54194;BME280;40102;50.906;6.972;2023-04-08T12:06:54;101759.03;;;10.91;69.77
54194;BME280;40102;50.906;6.972;2023-04-08T12:09:20;101769.69;;;10.93;70.23
54194;BME280;40102;50.906;6.972;2023-04-08T12:11:45;101767.06;;;10.91;70.16
54194;BME280;40102;50.906;6.972;2023-04-08T12:14:11;101768.81;;;10.92;70.11
54194;BME280;40102;50.906;6.972;2023-04-08T12:16:36;101760.91;;;10.89;69.92
54194;BME280;40102;50.906;6.972;2023-04-08T12:19:02;101760.91;;;10.89;70.20
54194;BME280;40102;50.906;6.972;2023-04-08T12:21:27;101754.75;;;10.87;70.16
54194;BME280;40102;50.906;6.972;2023-04-08T12:23:53;101766.31;;;10.88;70.01
54194;BME280;40102;50.906;6.972;2023-04-08T12:26:18;101775.22;;;10.88;70.02
54194;BME280;40102;50.906;6.972;2023-04-08T12:28:44;101767.25;;;10.87;69.92
54194;BME280;40102;50.906;6.972;2023-04-08T12:31:10;101769.00;;;10.88;69.92
54194;BME280;40102;50.906;6.972;2023-04-08T12:33:36;101772.63;;;10.87;69.69
54194;BME280;40102;50.906;6.972;2023-04-08T12:36:01;101775.28;;;10.87;69.73
54194;BME280;40102;50.906;6.972;2023-04-08T12:38:27;101775.28;;;10.87;69.82
54194;BME280;40102;50.906;6.972;2023-04-08T12:40:53;101776.22;;;10.86;69.74
54194;BME280;40102;50.906;6.972;2023-04-08T12:43:19;101768.19;;;10.86;69.34
54194;BME280;40102;50.906;6.972;2023-04-08T12:45:45;101770.75;;;10.89;69.55
54194;BME280;40102;50.906;6.972;2023-04-08T12:48:10;101773.47;;;10.87;69.41
54194;BME280;40102;50.906;6.972;2023-04-08T12:50:36;101761.91;;;10.87;69.66
54194;BME280;40102;50.906;6.972;2023-04-08T12:53:01;101773.41;;;10.89;70.09
54194;BME280;40102;50.906;6.972;2023-04-08T12:55:27;101768.94;;;10.89;70.10
54194;BME280;40102;50.906;6.972;2023-04-08T12:57:52;101757.38;;;10.89;70.41
54194;BME280;40102;50.906;6.972;2023-04-08T13:00:18;101757.31;;;10.90;70.47
54194;BME280;40102;50.906;6.972;2023-04-08T13:02:44;101755.56;;;10.89;70.38
54194;BME280;40102;50.906;6.972;2023-04-08T13:05:10;101751.81;;;10.93;70.25
54194;BME280;40102;50.906;6.972;2023-04-08T13:07:35;101756.19;;;10.96;70.36
54194;BME280;40102;50.906;6.972;2023-04-08T13:10:01;101760.66;;;10.95;70.30
54194;BME280;40102;50.906;6.972;2023-04-08T13:12:28;101758.72;;;10.99;70.10
54194;BME280;40102;50.906;6.972;2023-04-08T13:14:53;101760.41;;;11.01;70.09
54194;BME280;40102;50.906;6.972;2023-04-08T13:17:19;101755.94;;;11.02;70.19